Terminal Aerodrome Forecast
Issued by NWS

Home | Current Version | Previous Version | Text Only | Print | Product List | Glossary Off
Versions: 1 2 3 4 5 6 7 8 9 10 11 12 13 14 15 16

000
FTUS41 KCLE 280900 AAB
TAFFDY
TAF AMD
KFDY 280940Z 2810/2906 08003KT 4SM BR FEW150 BKN250
      TEMPO 2810/2813 1 1/2SM BR
     FM281600 06003KT P6SM SCT045 BKN250
     FM290000 08002KT P6SM SCT200=

USA.gov is the U.S. government's official web portal to all federal, state and local government web resources and services.